sensor_id;sensor_type;location;lat;lon;timestamp;P1;durP1;ratioP1;P2;durP2;ratioP2
38581;SDS011;24349;53.720;10.014;2023-06-04T00:00:46;5.40;;;2.53;;
38581;SDS011;24349;53.720;10.014;2023-06-04T00:03:12;4.88;;;2.20;;
38581;SDS011;24349;53.720;10.014;2023-06-04T00:05:38;6.65;;;2.70;;
38581;SDS011;24349;53.720;10.014;2023-06-04T00:08:03;4.28;;;2.40;;
38581;SDS011;24349;53.720;10.014;2023-06-04T00:10:29;6.78;;;2.40;;
38581;SDS011;24349;53.720;10.014;2023-06-04T00:12:56;4.50;;;2.42;;
38581;SDS011;24349;53.720;10.014;2023-06-04T00:15:21;4.47;;;2.65;;
38581;SDS011;24349;53.720;10.014;2023-06-04T00:17:47;5.05;;;2.30;;
38581;SDS011;24349;53.720;10.014;2023-06-04T00:20:13;6.10;;;2.83;;
38581;SDS011;24349;53.720;10.014;2023-06-04T00:22:38;6.35;;;2.50;;
38581;SDS011;24349;53.720;10.014;2023-06-04T00:25:06;4.80;;;2.30;;
38581;SDS011;24349;53.720;10.014;2023-06-04T00:27:33;6.18;;;2.60;;
38581;SDS011;24349;53.720;10.014;2023-06-04T00:29:58;5.70;;;2.50;;
38581;SDS011;24349;53.720;10.014;2023-06-04T00:32:24;5.18;;;2.72;;
38581;SDS011;24349;53.720;10.014;2023-06-04T00:34:50;7.18;;;2.67;;
38581;SDS011;24349;53.720;10.014;2023-06-04T00:37:16;5.57;;;2.60;;
38581;SDS011;24349;53.720;10.014;2023-06-04T00:39:42;4.97;;;2.60;;
38581;SDS011;24349;53.720;10.014;2023-06-04T00:42:08;4.72;;;2.20;;
38581;SDS011;24349;53.720;10.014;2023-06-04T00:44:33;4.00;;;2.10;;
38581;SDS011;24349;53.720;10.014;2023-06-04T00:47:01;5.93;;;2.40;;
38581;SDS011;24349;53.720;10.014;2023-06-04T00:49:27;5.10;;;2.60;;
38581;SDS011;24349;53.720;10.014;2023-06-04T00:51:53;5.60;;;2.70;;
38581;SDS011;24349;53.720;10.014;2023-06-04T00:54:19;4.57;;;2.30;;
38581;SDS011;24349;53.720;10.014;2023-06-04T00:56:47;5.38;;;2.47;;
38581;SDS011;24349;53.720;10.014;2023-06-04T00:59:13;4.88;;;2.53;;
38581;SDS011;24349;53.720;10.014;2023-06-04T01:04:16;5.88;;;2.60;;
38581;SDS011;24349;53.720;10.014;2023-06-04T01:06:49;5.05;;;2.78;;
38581;SDS011;24349;53.720;10.014;2023-06-04T01:09:16;6.07;;;2.72;;
38581;SDS011;24349;53.720;10.014;2023-06-04T01:11:42;5.82;;;2.50;;
38581;SDS011;24349;53.720;10.014;2023-06-04T01:14:09;6.85;;;2.90;;
38581;SDS011;24349;53.720;10.014;2023-06-04T01:16:47;4.47;;;2.40;;
38581;SDS011;24349;53.720;10.014;2023-06-04T01:25:05;6.00;;;2.42;;
38581;SDS011;24349;53.720;10.014;2023-06-04T01:27:36;7.28;;;2.55;;
38581;SDS011;24349;53.720;10.014;2023-06-04T01:30:05;5.63;;;2.80;;
38581;SDS011;24349;53.720;10.014;2023-06-04T01:32:33;6.97;;;3.10;;
38581;SDS011;24349;53.720;10.014;2023-06-04T01:34:59;7.35;;;2.42;;
38581;SDS011;24349;53.720;10.014;2023-06-04T01:37:25;4.72;;;2.55;;
38581;SDS011;24349;53.720;10.014;2023-06-04T01:39:51;4.63;;;2.35;;
38581;SDS011;24349;53.720;10.014;2023-06-04T01:42:16;5.32;;;2.50;;
38581;SDS011;24349;53.720;10.014;2023-06-04T01:44:42;6.22;;;2.80;;
38581;SDS011;24349;53.720;10.014;2023-06-04T01:47:08;4.95;;;2.28;;
38581;SDS011;24349;53.720;10.014;2023-06-04T01:49:33;4.90;;;2.58;;
38581;SDS011;24349;53.720;10.014;2023-06-04T01:51:59;4.60;;;2.10;;
38581;SDS011;24349;53.720;10.014;2023-06-04T01:54:25;4.07;;;2.13;;
38581;SDS011;24349;53.720;10.014;2023-06-04T01:56:50;3.78;;;2.17;;
38581;SDS011;24349;53.720;10.014;2023-06-04T01:59:16;5.25;;;2.30;;
38581;SDS011;24349;53.720;10.014;2023-06-04T02:01:42;5.70;;;2.88;;
38581;SDS011;24349;53.720;10.014;2023-06-04T02:04:07;4.90;;;2.40;;
38581;SDS011;24349;53.720;10.014;2023-06-04T02:06:33;7.38;;;3.15;;
38581;SDS011;24349;53.720;10.014;2023-06-04T02:08:58;6.63;;;2.78;;
38581;SDS011;24349;53.720;10.014;2023-06-04T02:11:25;6.40;;;2.83;;
38581;SDS011;24349;53.720;10.014;2023-06-04T02:13:51;5.63;;;2.55;;
38581;SDS011;24349;53.720;10.014;2023-06-04T02:16:16;5.70;;;2.78;;
38581;SDS011;24349;53.720;10.014;2023-06-04T02:18:42;5.78;;;2.58;;
38581;SDS011;24349;53.720;10.014;2023-06-04T02:21:07;5.20;;;2.47;;
38581;SDS011;24349;53.720;10.014;2023-06-04T02:23:33;5.53;;;2.50;;
38581;SDS011;24349;53.720;10.014;2023-06-04T02:25:59;5.72;;;2.25;;
38581;SDS011;24349;53.720;10.014;2023-06-04T02:28:24;5.35;;;2.70;;
38581;SDS011;24349;53.720;10.014;2023-06-04T02:30:51;5.75;;;2.80;;
38581;SDS011;24349;53.720;10.014;2023-06-04T02:33:16;6.55;;;2.67;;
38581;SDS011;24349;53.720;10.014;2023-06-04T02:35:42;5.32;;;2.60;;
38581;SDS011;24349;53.720;10.014;2023-06-04T02:38:08;5.15;;;2.63;;
38581;SDS011;24349;53.720;10.014;2023-06-04T02:40:33;6.13;;;2.53;;
38581;SDS011;24349;53.720;10.014;2023-06-04T02:42:59;5.80;;;2.50;;
38581;SDS011;24349;53.720;10.014;2023-06-04T02:45:25;5.15;;;2.70;;
38581;SDS011;24349;53.720;10.014;2023-06-04T02:47:50;4.47;;;2.20;;
38581;SDS011;24349;53.720;10.014;2023-06-04T02:50:16;4.95;;;2.30;;
38581;SDS011;24349;53.720;10.014;2023-06-04T02:52:42;6.93;;;2.10;;
38581;SDS011;24349;53.720;10.014;2023-06-04T02:55:08;6.13;;;2.42;;
38581;SDS011;24349;53.720;10.014;2023-06-04T02:57:34;5.95;;;2.65;;
38581;SDS011;24349;53.720;10.014;2023-06-04T03:00:00;5.20;;;2.30;;
38581;SDS011;24349;53.720;10.014;2023-06-04T03:02:32;4.18;;;2.08;;
38581;SDS011;24349;53.720;10.014;2023-06-04T03:04:58;5.43;;;2.30;;
38581;SDS011;24349;53.720;10.014;2023-06-04T03:07:23;7.95;;;2.50;;
38581;SDS011;24349;53.720;10.014;2023-06-04T03:09:49;5.93;;;2.60;;
38581;SDS011;24349;53.720;10.014;2023-06-04T03:12:15;5.35;;;2.42;;
38581;SDS011;24349;53.720;10.014;2023-06-04T03:14:41;7.00;;;3.03;;
38581;SDS011;24349;53.720;10.014;2023-06-04T03:17:06;5.32;;;2.30;;
38581;SDS011;24349;53.720;10.014;2023-06-04T03:19:35;5.13;;;2.15;;
38581;SDS011;24349;53.720;10.014;2023-06-04T03:22:01;5.25;;;2.53;;
38581;SDS011;24349;53.720;10.014;2023-06-04T03:24:32;5.18;;;2.40;;
38581;SDS011;24349;53.720;10.014;2023-06-04T03:26:59;5.25;;;2.03;;
38581;SDS011;24349;53.720;10.014;2023-06-04T03:29:25;4.45;;;2.30;;
38581;SDS011;24349;53.720;10.014;2023-06-04T03:31:51;4.88;;;2.30;;
38581;SDS011;24349;53.720;10.014;2023-06-04T03:34:17;5.25;;;2.35;;
38581;SDS011;24349;53.720;10.014;2023-06-04T03:36:42;5.22;;;2.50;;
38581;SDS011;24349;53.720;10.014;2023-06-04T03:39:08;6.68;;;3.00;;
38581;SDS011;24349;53.720;10.014;2023-06-04T03:41:35;4.68;;;2.45;;
38581;SDS011;24349;53.720;10.014;2023-06-04T03:44:00;5.95;;;2.60;;
38581;SDS011;24349;53.720;10.014;2023-06-04T03:46:26;5.38;;;2.30;;
38581;SDS011;24349;53.720;10.014;2023-06-04T03:48:54;5.88;;;2.90;;
38581;SDS011;24349;53.720;10.014;2023-06-04T03:51:20;5.70;;;2.60;;
38581;SDS011;24349;53.720;10.014;2023-06-04T03:53:45;5.75;;;2.67;;
38581;SDS011;24349;53.720;10.014;2023-06-04T03:56:11;5.45;;;2.70;;
38581;SDS011;24349;53.720;10.014;2023-06-04T03:58:36;6.07;;;3.00;;
38581;SDS011;24349;53.720;10.014;2023-06-04T04:01:02;7.05;;;3.42;;
38581;SDS011;24349;53.720;10.014;2023-06-04T04:03:30;6.43;;;3.05;;
38581;SDS011;24349;53.720;10.014;2023-06-04T04:05:56;5.90;;;2.55;;
38581;SDS011;24349;53.720;10.014;2023-06-04T04:08:22;6.53;;;2.97;;
38581;SDS011;24349;53.720;10.014;2023-06-04T04:10:48;8.55;;;2.88;;
38581;SDS011;24349;53.720;10.014;2023-06-04T04:13:14;5.57;;;3.30;;
38581;SDS011;24349;53.720;10.014;2023-06-04T04:15:40;5.57;;;2.78;;
38581;SDS011;24349;53.720;10.014;2023-06-04T04:18:05;6.13;;;2.83;;
38581;SDS011;24349;53.720;10.014;2023-06-04T04:20:33;7.05;;;3.42;;
38581;SDS011;24349;53.720;10.014;2023-06-04T04:22:59;6.72;;;2.97;;
38581;SDS011;24349;53.720;10.014;2023-06-04T04:25:25;9.10;;;3.17;;
38581;SDS011;24349;53.720;10.014;2023-06-04T04:27:51;6.38;;;3.20;;
38581;SDS011;24349;53.720;10.014;2023-06-04T04:30:17;6.18;;;2.88;;
38581;SDS011;24349;53.720;10.014;2023-06-04T04:32:43;6.07;;;3.08;;
38581;SDS011;24349;53.720;10.014;2023-06-04T04:35:15;7.33;;;2.97;;
38581;SDS011;24349;53.720;10.014;2023-06-04T04:37:43;8.38;;;3.53;;
38581;SDS011;24349;53.720;10.014;2023-06-04T04:40:09;8.90;;;3.63;;
38581;SDS011;24349;53.720;10.014;2023-06-04T04:42:36;8.52;;;3.90;;
38581;SDS011;24349;53.720;10.014;2023-06-04T04:45:02;8.57;;;4.43;;
38581;SDS011;24349;53.720;10.014;2023-06-04T04:47:28;10.00;;;4.75;;
38581;SDS011;24349;53.720;10.014;2023-06-04T04:49:54;10.02;;;4.40;;
38581;SDS011;24349;53.720;10.014;2023-06-04T04:52:20;7.88;;;4.30;;
38581;SDS011;24349;53.720;10.014;2023-06-04T04:54:45;10.38;;;4.55;;
38581;SDS011;24349;53.720;10.014;2023-06-04T04:57:11;8.20;;;4.00;;
38581;SDS011;24349;53.720;10.014;2023-06-04T04:59:37;13.35;;;5.55;;
38581;SDS011;24349;53.720;10.014;2023-06-04T05:02:02;10.40;;;4.50;;
38581;SDS011;24349;53.720;10.014;2023-06-04T05:04:28;12.95;;;5.20;;
38581;SDS011;24349;53.720;10.014;2023-06-04T05:06:54;10.30;;;5.05;;
38581;SDS011;24349;53.720;10.014;2023-06-04T05:09:19;10.02;;;3.97;;
38581;SDS011;24349;53.720;10.014;2023-06-04T05:11:45;9.45;;;3.78;;
38581;SDS011;24349;53.720;10.014;2023-06-04T05:14:11;10.30;;;4.20;;
38581;SDS011;24349;53.720;10.014;2023-06-04T05:16:37;10.60;;;3.90;;
38581;SDS011;24349;53.720;10.014;2023-06-04T05:19:03;11.43;;;4.40;;
38581;SDS011;24349;53.720;10.014;2023-06-04T05:21:29;10.57;;;4.07;;
38581;SDS011;24349;53.720;10.014;2023-06-04T05:23:54;11.13;;;3.80;;
38581;SDS011;24349;53.720;10.014;2023-06-04T05:26:21;8.55;;;3.85;;
38581;SDS011;24349;53.720;10.014;2023-06-04T05:28:48;8.15;;;3.70;;
38581;SDS011;24349;53.720;10.014;2023-06-04T05:31:14;8.75;;;3.60;;
38581;SDS011;24349;53.720;10.014;2023-06-04T05:33:40;9.93;;;3.70;;
38581;SDS011;24349;53.720;10.014;2023-06-04T05:36:06;11.98;;;4.68;;
38581;SDS011;24349;53.720;10.014;2023-06-04T05:38:32;10.98;;;3.53;;
38581;SDS011;24349;53.720;10.014;2023-06-04T05:40:58;8.27;;;3.47;;
38581;SDS011;24349;53.720;10.014;2023-06-04T05:43:23;7.45;;;2.95;;
38581;SDS011;24349;53.720;10.014;2023-06-04T05:45:49;8.60;;;2.90;;
38581;SDS011;24349;53.720;10.014;2023-06-04T05:48:16;8.35;;;3.22;;
38581;SDS011;24349;53.720;10.014;2023-06-04T05:50:42;6.40;;;2.90;;
38581;SDS011;24349;53.720;10.014;2023-06-04T05:53:08;10.25;;;3.38;;
38581;SDS011;24349;53.720;10.014;2023-06-04T05:55:33;7.57;;;2.65;;
38581;SDS011;24349;53.720;10.014;2023-06-04T05:57:59;8.23;;;2.90;;
38581;SDS011;24349;53.720;10.014;2023-06-04T06:00:25;9.10;;;2.83;;
38581;SDS011;24349;53.720;10.014;2023-06-04T06:02:50;7.03;;;3.10;;
38581;SDS011;24349;53.720;10.014;2023-06-04T06:05:18;7.43;;;2.63;;
38581;SDS011;24349;53.720;10.014;2023-06-04T06:07:44;8.70;;;2.90;;
38581;SDS011;24349;53.720;10.014;2023-06-04T06:10:11;9.00;;;3.05;;
38581;SDS011;24349;53.720;10.014;2023-06-04T06:12:37;7.18;;;2.72;;
38581;SDS011;24349;53.720;10.014;2023-06-04T06:15:03;7.45;;;2.72;;
38581;SDS011;24349;53.720;10.014;2023-06-04T06:17:29;7.35;;;2.65;;
38581;SDS011;24349;53.720;10.014;2023-06-04T06:19:54;5.90;;;2.58;;
38581;SDS011;24349;53.720;10.014;2023-06-04T06:22:21;7.35;;;2.88;;
38581;SDS011;24349;53.720;10.014;2023-06-04T06:24:47;8.77;;;3.28;;
38581;SDS011;24349;53.720;10.014;2023-06-04T06:27:16;7.68;;;2.53;;
38581;SDS011;24349;53.720;10.014;2023-06-04T06:29:42;7.90;;;2.13;;
38581;SDS011;24349;53.720;10.014;2023-06-04T06:34:36;5.70;;;2.45;;
38581;SDS011;24349;53.720;10.014;2023-06-04T06:37:03;6.88;;;2.20;;
38581;SDS011;24349;53.720;10.014;2023-06-04T06:39:29;6.45;;;2.30;;
38581;SDS011;24349;53.720;10.014;2023-06-04T06:41:54;7.82;;;2.95;;
38581;SDS011;24349;53.720;10.014;2023-06-04T06:44:20;7.60;;;2.55;;
38581;SDS011;24349;53.720;10.014;2023-06-04T06:46:46;7.03;;;2.15;;
38581;SDS011;24349;53.720;10.014;2023-06-04T06:49:13;6.22;;;2.05;;
38581;SDS011;24349;53.720;10.014;2023-06-04T06:51:39;5.93;;;2.00;;
38581;SDS011;24349;53.720;10.014;2023-06-04T06:54:05;6.10;;;2.58;;
38581;SDS011;24349;53.720;10.014;2023-06-04T06:56:33;8.35;;;2.30;;
38581;SDS011;24349;53.720;10.014;2023-06-04T06:58:59;6.95;;;2.40;;
38581;SDS011;24349;53.720;10.014;2023-06-04T07:01:25;5.50;;;2.17;;
38581;SDS011;24349;53.720;10.014;2023-06-04T07:03:51;6.30;;;2.03;;
38581;SDS011;24349;53.720;10.014;2023-06-04T07:06:17;6.50;;;1.95;;
38581;SDS011;24349;53.720;10.014;2023-06-04T07:08:42;6.95;;;2.10;;
38581;SDS011;24349;53.720;10.014;2023-06-04T07:11:08;6.05;;;2.58;;
38581;SDS011;24349;53.720;10.014;2023-06-04T07:13:37;4.72;;;1.75;;
38581;SDS011;24349;53.720;10.014;2023-06-04T07:16:03;5.60;;;2.30;;
38581;SDS011;24349;53.720;10.014;2023-06-04T07:18:29;6.63;;;2.22;;
38581;SDS011;24349;53.720;10.014;2023-06-04T07:20:55;5.47;;;2.05;;
38581;SDS011;24349;53.720;10.014;2023-06-04T07:23:20;6.93;;;1.80;;
38581;SDS011;24349;53.720;10.014;2023-06-04T07:25:46;5.50;;;1.77;;
38581;SDS011;24349;53.720;10.014;2023-06-04T07:28:11;5.57;;;1.88;;
38581;SDS011;24349;53.720;10.014;2023-06-04T07:30:37;6.10;;;1.98;;
38581;SDS011;24349;53.720;10.014;2023-06-04T07:33:03;4.57;;;1.75;;
38581;SDS011;24349;53.720;10.014;2023-06-04T07:35:29;4.72;;;1.90;;
38581;SDS011;24349;53.720;10.014;2023-06-04T07:37:54;5.05;;;1.60;;
38581;SDS011;24349;53.720;10.014;2023-06-04T07:40:20;4.28;;;1.52;;
38581;SDS011;24349;53.720;10.014;2023-06-04T07:42:46;4.90;;;1.77;;
38581;SDS011;24349;53.720;10.014;2023-06-04T07:45:14;5.75;;;2.08;;
38581;SDS011;24349;53.720;10.014;2023-06-04T07:47:40;4.15;;;1.55;;
38581;SDS011;24349;53.720;10.014;2023-06-04T07:50:07;6.25;;;2.03;;
38581;SDS011;24349;53.720;10.014;2023-06-04T07:52:33;4.28;;;1.60;;
38581;SDS011;24349;53.720;10.014;2023-06-04T07:54:59;5.38;;;2.03;;
38581;SDS011;24349;53.720;10.014;2023-06-04T07:57:25;4.65;;;1.67;;
38581;SDS011;24349;53.720;10.014;2023-06-04T07:59:51;3.97;;;1.85;;
38581;SDS011;24349;53.720;10.014;2023-06-04T08:02:17;4.72;;;1.40;;
38581;SDS011;24349;53.720;10.014;2023-06-04T08:04:44;5.00;;;1.70;;
38581;SDS011;24349;53.720;10.014;2023-06-04T08:07:10;4.05;;;1.67;;
38581;SDS011;24349;53.720;10.014;2023-06-04T08:09:36;4.57;;;1.40;;
38581;SDS011;24349;53.720;10.014;2023-06-04T08:12:02;3.83;;;1.60;;
38581;SDS011;24349;53.720;10.014;2023-06-04T08:14:27;5.30;;;1.98;;
38581;SDS011;24349;53.720;10.014;2023-06-04T08:16:53;4.72;;;1.65;;
38581;SDS011;24349;53.720;10.014;2023-06-04T08:19:19;7.30;;;1.70;;
38581;SDS011;24349;53.720;10.014;2023-06-04T08:21:45;4.07;;;1.50;;
38581;SDS011;24349;53.720;10.014;2023-06-04T08:24:12;4.90;;;1.48;;
38581;SDS011;24349;53.720;10.014;2023-06-04T08:26:37;5.75;;;1.83;;
38581;SDS011;24349;53.720;10.014;2023-06-04T08:29:03;4.15;;;1.50;;
38581;SDS011;24349;53.720;10.014;2023-06-04T08:31:29;4.13;;;1.52;;
38581;SDS011;24349;53.720;10.014;2023-06-04T08:33:55;3.67;;;1.70;;
38581;SDS011;24349;53.720;10.014;2023-06-04T08:36:21;4.03;;;1.48;;
38581;SDS011;24349;53.720;10.014;2023-06-04T08:38:47;6.00;;;1.65;;
38581;SDS011;24349;53.720;10.014;2023-06-04T08:41:16;4.38;;;1.80;;
38581;SDS011;24349;53.720;10.014;2023-06-04T08:43:51;4.85;;;1.55;;
38581;SDS011;24349;53.720;10.014;2023-06-04T08:46:18;4.75;;;1.58;;
38581;SDS011;24349;53.720;10.014;2023-06-04T08:48:46;3.22;;;1.40;;
38581;SDS011;24349;53.720;10.014;2023-06-04T08:51:12;3.80;;;1.58;;
38581;SDS011;24349;53.720;10.014;2023-06-04T08:53:39;5.22;;;1.77;;
38581;SDS011;24349;53.720;10.014;2023-06-04T08:56:06;5.03;;;1.77;;
38581;SDS011;24349;53.720;10.014;2023-06-04T08:58:32;6.00;;;1.65;;
38581;SDS011;24349;53.720;10.014;2023-06-04T09:01:00;5.15;;;1.85;;
38581;SDS011;24349;53.720;10.014;2023-06-04T09:03:26;4.55;;;1.63;;
38581;SDS011;24349;53.720;10.014;2023-06-04T09:05:56;4.32;;;1.88;;
38581;SDS011;24349;53.720;10.014;2023-06-04T09:08:22;4.57;;;1.90;;
38581;SDS011;24349;53.720;10.014;2023-06-04T09:10:51;4.82;;;1.40;;
38581;SDS011;24349;53.720;10.014;2023-06-04T09:13:21;6.20;;;1.80;;
38581;SDS011;24349;53.720;10.014;2023-06-04T09:16:00;4.30;;;1.70;;
38581;SDS011;24349;53.720;10.014;2023-06-04T09:18:27;5.82;;;2.10;;
38581;SDS011;24349;53.720;10.014;2023-06-04T09:21:06;5.35;;;1.50;;
38581;SDS011;24349;53.720;10.014;2023-06-04T09:23:48;3.53;;;1.50;;
38581;SDS011;24349;53.720;10.014;2023-06-04T09:26:14;6.13;;;2.33;;
38581;SDS011;24349;53.720;10.014;2023-06-04T09:28:40;4.65;;;1.67;;
38581;SDS011;24349;53.720;10.014;2023-06-04T09:31:10;4.45;;;1.60;;
38581;SDS011;24349;53.720;10.014;2023-06-04T09:33:47;4.05;;;1.52;;
38581;SDS011;24349;53.720;10.014;2023-06-04T09:36:14;4.88;;;1.80;;
38581;SDS011;24349;53.720;10.014;2023-06-04T09:38:42;4.32;;;1.60;;
38581;SDS011;24349;53.720;10.014;2023-06-04T09:41:11;4.00;;;1.80;;
38581;SDS011;24349;53.720;10.014;2023-06-04T09:43:41;3.95;;;1.70;;
38581;SDS011;24349;53.720;10.014;2023-06-04T09:46:09;5.25;;;1.80;;
38581;SDS011;24349;53.720;10.014;2023-06-04T09:48:35;4.53;;;1.60;;
38581;SDS011;24349;53.720;10.014;2023-06-04T09:51:11;3.75;;;1.60;;
38581;SDS011;24349;53.720;10.014;2023-06-04T09:53:40;6.10;;;1.80;;
38581;SDS011;24349;53.720;10.014;2023-06-04T09:56:06;4.80;;;1.60;;
38581;SDS011;24349;53.720;10.014;2023-06-04T09:58:33;4.45;;;1.58;;
38581;SDS011;24349;53.720;10.014;2023-06-04T10:01:00;12.95;;;2.00;;
38581;SDS011;24349;53.720;10.014;2023-06-04T10:03:32;4.55;;;1.70;;
38581;SDS011;24349;53.720;10.014;2023-06-04T10:05:59;7.20;;;1.80;;
38581;SDS011;24349;53.720;10.014;2023-06-04T10:08:27;5.20;;;1.77;;
38581;SDS011;24349;53.720;10.014;2023-06-04T10:10:56;6.40;;;1.90;;
38581;SDS011;24349;53.720;10.014;2023-06-04T10:13:26;3.85;;;1.73;;
38581;SDS011;24349;53.720;10.014;2023-06-04T10:15:54;5.15;;;1.60;;
38581;SDS011;24349;53.720;10.014;2023-06-04T10:18:23;4.10;;;1.95;;
38581;SDS011;24349;53.720;10.014;2023-06-04T10:20:52;5.05;;;1.75;;
38581;SDS011;24349;53.720;10.014;2023-06-04T10:23:19;4.57;;;1.40;;
38581;SDS011;24349;53.720;10.014;2023-06-04T10:25:47;6.10;;;1.73;;
38581;SDS011;24349;53.720;10.014;2023-06-04T10:28:14;4.95;;;1.40;;
38581;SDS011;24349;53.720;10.014;2023-06-04T10:30:40;3.28;;;1.40;;
38581;SDS011;24349;53.720;10.014;2023-06-04T10:33:06;4.45;;;1.50;;
38581;SDS011;24349;53.720;10.014;2023-06-04T10:35:35;4.00;;;1.58;;
38581;SDS011;24349;53.720;10.014;2023-06-04T10:38:07;4.40;;;1.42;;
38581;SDS011;24349;53.720;10.014;2023-06-04T10:40:34;5.00;;;1.60;;
38581;SDS011;24349;53.720;10.014;2023-06-04T10:43:04;3.40;;;1.30;;
38581;SDS011;24349;53.720;10.014;2023-06-04T10:45:30;7.35;;;1.70;;
38581;SDS011;24349;53.720;10.014;2023-06-04T10:48:00;3.10;;;1.27;;
38581;SDS011;24349;53.720;10.014;2023-06-04T10:50:31;7.03;;;2.00;;
38581;SDS011;24349;53.720;10.014;2023-06-04T10:53:01;7.68;;;1.75;;
38581;SDS011;24349;53.720;10.014;2023-06-04T10:55:28;4.68;;;1.65;;
38581;SDS011;24349;53.720;10.014;2023-06-04T10:57:56;3.58;;;1.60;;
38581;SDS011;24349;53.720;10.014;2023-06-04T11:03:06;4.97;;;1.40;;
38581;SDS011;24349;53.720;10.014;2023-06-04T11:05:39;3.85;;;1.60;;
38581;SDS011;24349;53.720;10.014;2023-06-04T11:08:07;4.95;;;1.70;;
38581;SDS011;24349;53.720;10.014;2023-06-04T11:10:38;6.10;;;1.73;;
38581;SDS011;24349;53.720;10.014;2023-06-04T11:13:06;3.47;;;1.40;;
38581;SDS011;24349;53.720;10.014;2023-06-04T11:15:43;5.07;;;1.40;;
38581;SDS011;24349;53.720;10.014;2023-06-04T11:18:13;3.70;;;1.55;;
38581;SDS011;24349;53.720;10.014;2023-06-04T11:20:40;3.58;;;1.48;;
38581;SDS011;24349;53.720;10.014;2023-06-04T11:23:07;4.47;;;1.40;;
38581;SDS011;24349;53.720;10.014;2023-06-04T11:25:33;3.25;;;1.40;;
38581;SDS011;24349;53.720;10.014;2023-06-04T11:27:59;4.57;;;1.40;;
38581;SDS011;24349;53.720;10.014;2023-06-04T11:30:26;3.80;;;1.50;;
38581;SDS011;24349;53.720;10.014;2023-06-04T11:33:02;4.25;;;1.30;;
38581;SDS011;24349;53.720;10.014;2023-06-04T11:35:28;3.92;;;1.52;;
38581;SDS011;24349;53.720;10.014;2023-06-04T11:37:55;4.10;;;1.55;;
38581;SDS011;24349;53.720;10.014;2023-06-04T11:40:22;5.75;;;1.60;;
38581;SDS011;24349;53.720;10.014;2023-06-04T11:42:48;3.17;;;1.40;;
38581;SDS011;24349;53.720;10.014;2023-06-04T11:45:15;3.25;;;1.50;;
38581;SDS011;24349;53.720;10.014;2023-06-04T11:47:48;4.18;;;1.50;;
38581;SDS011;24349;53.720;10.014;2023-06-04T11:50:18;4.13;;;1.50;;
38581;SDS011;24349;53.720;10.014;2023-06-04T11:52:44;3.60;;;1.60;;
38581;SDS011;24349;53.720;10.014;2023-06-04T11:55:11;3.80;;;1.45;;
38581;SDS011;24349;53.720;10.014;2023-06-04T11:57:40;3.38;;;1.50;;
38581;SDS011;24349;53.720;10.014;2023-06-04T12:00:07;3.42;;;1.35;;
38581;SDS011;24349;53.720;10.014;2023-06-04T12:02:49;3.38;;;1.40;;
38581;SDS011;24349;53.720;10.014;2023-06-04T12:05:16;4.32;;;1.42;;
38581;SDS011;24349;53.720;10.014;2023-06-04T12:07:49;4.57;;;1.52;;
38581;SDS011;24349;53.720;10.014;2023-06-04T12:10:16;4.40;;;1.63;;
38581;SDS011;24349;53.720;10.014;2023-06-04T12:12:42;3.83;;;1.48;;
38581;SDS011;24349;53.720;10.014;2023-06-04T12:15:08;4.47;;;1.70;;
38581;SDS011;24349;53.720;10.014;2023-06-04T12:17:35;5.28;;;1.70;;
38581;SDS011;24349;53.720;10.014;2023-06-04T12:20:02;6.50;;;2.40;;
38581;SDS011;24349;53.720;10.014;2023-06-04T12:22:30;4.43;;;1.80;;
38581;SDS011;24349;53.720;10.014;2023-06-04T12:24:57;6.97;;;3.47;;
38581;SDS011;24349;53.720;10.014;2023-06-04T12:27:25;4.38;;;1.77;;
38581;SDS011;24349;53.720;10.014;2023-06-04T12:29:55;3.95;;;1.50;;
38581;SDS011;24349;53.720;10.014;2023-06-04T12:32:25;5.50;;;1.67;;
38581;SDS011;24349;53.720;10.014;2023-06-04T12:34:51;3.30;;;1.50;;
38581;SDS011;24349;53.720;10.014;2023-06-04T12:37:16;4.85;;;1.90;;
38581;SDS011;24349;53.720;10.014;2023-06-04T12:39:42;5.28;;;1.67;;
38581;SDS011;24349;53.720;10.014;2023-06-04T12:42:08;3.72;;;1.70;;
38581;SDS011;24349;53.720;10.014;2023-06-04T12:44:40;4.82;;;2.25;;
38581;SDS011;24349;53.720;10.014;2023-06-04T12:47:09;5.00;;;2.00;;
38581;SDS011;24349;53.720;10.014;2023-06-04T12:49:35;5.55;;;1.60;;
38581;SDS011;24349;53.720;10.014;2023-06-04T12:52:00;3.65;;;1.70;;
38581;SDS011;24349;53.720;10.014;2023-06-04T12:54:26;4.03;;;1.55;;
38581;SDS011;24349;53.720;10.014;2023-06-04T12:56:55;5.63;;;1.63;;
38581;SDS011;24349;53.720;10.014;2023-06-04T12:59:27;4.50;;;1.70;;
38581;SDS011;24349;53.720;10.014;2023-06-04T13:01:53;3.97;;;1.60;;
38581;SDS011;24349;53.720;10.014;2023-06-04T13:04:19;3.60;;;1.50;;
38581;SDS011;24349;53.720;10.014;2023-06-04T13:06:45;4.18;;;1.50;;
38581;SDS011;24349;53.720;10.014;2023-06-04T13:09:11;4.00;;;1.70;;
38581;SDS011;24349;53.720;10.014;2023-06-04T13:11:38;5.13;;;1.60;;
38581;SDS011;24349;53.720;10.014;2023-06-04T13:14:04;3.28;;;1.55;;
38581;SDS011;24349;53.720;10.014;2023-06-04T13:16:30;4.00;;;1.58;;
38581;SDS011;24349;53.720;10.014;2023-06-04T13:18:56;4.35;;;1.70;;
38581;SDS011;24349;53.720;10.014;2023-06-04T13:21:22;4.53;;;1.85;;
38581;SDS011;24349;53.720;10.014;2023-06-04T13:23:47;4.03;;;1.50;;
38581;SDS011;24349;53.720;10.014;2023-06-04T13:26:15;3.25;;;1.30;;
38581;SDS011;24349;53.720;10.014;2023-06-04T13:28:41;3.55;;;1.45;;
38581;SDS011;24349;53.720;10.014;2023-06-04T13:31:06;4.97;;;2.28;;
38581;SDS011;24349;53.720;10.014;2023-06-04T13:33:32;5.90;;;2.75;;
38581;SDS011;24349;53.720;10.014;2023-06-04T13:35:59;4.13;;;1.70;;
38581;SDS011;24349;53.720;10.014;2023-06-04T13:38:25;4.47;;;1.70;;
38581;SDS011;24349;53.720;10.014;2023-06-04T13:40:51;3.80;;;1.67;;
38581;SDS011;24349;53.720;10.014;2023-06-04T13:43:17;3.75;;;1.50;;
38581;SDS011;24349;53.720;10.014;2023-06-04T13:45:43;4.75;;;1.60;;
38581;SDS011;24349;53.720;10.014;2023-06-04T13:48:10;4.03;;;1.90;;
38581;SDS011;24349;53.720;10.014;2023-06-04T13:50:36;4.88;;;2.03;;
38581;SDS011;24349;53.720;10.014;2023-06-04T13:53:02;4.82;;;1.80;;
38581;SDS011;24349;53.720;10.014;2023-06-04T13:55:28;4.32;;;1.70;;
38581;SDS011;24349;53.720;10.014;2023-06-04T13:57:54;4.72;;;1.70;;
38581;SDS011;24349;53.720;10.014;2023-06-04T14:00:20;4.65;;;1.85;;
38581;SDS011;24349;53.720;10.014;2023-06-04T14:02:47;4.60;;;1.90;;
38581;SDS011;24349;53.720;10.014;2023-06-04T14:05:13;3.38;;;1.50;;
38581;SDS011;24349;53.720;10.014;2023-06-04T14:07:38;4.63;;;1.60;;
38581;SDS011;24349;53.720;10.014;2023-06-04T14:10:06;3.83;;;1.58;;
38581;SDS011;24349;53.720;10.014;2023-06-04T14:12:32;4.53;;;1.70;;
38581;SDS011;24349;53.720;10.014;2023-06-04T14:14:57;5.22;;;1.83;;
38581;SDS011;24349;53.720;10.014;2023-06-04T14:17:24;5.18;;;1.95;;
38581;SDS011;24349;53.720;10.014;2023-06-04T14:19:49;4.70;;;1.80;;
38581;SDS011;24349;53.720;10.014;2023-06-04T14:22:15;3.65;;;1.55;;
38581;SDS011;24349;53.720;10.014;2023-06-04T14:24:41;5.00;;;1.80;;
38581;SDS011;24349;53.720;10.014;2023-06-04T14:27:07;4.50;;;1.67;;
38581;SDS011;24349;53.720;10.014;2023-06-04T14:29:34;3.90;;;1.67;;
38581;SDS011;24349;53.720;10.014;2023-06-04T14:32:01;4.80;;;2.00;;
38581;SDS011;24349;53.720;10.014;2023-06-04T14:34:27;5.00;;;2.10;;
38581;SDS011;24349;53.720;10.014;2023-06-04T14:36:52;4.72;;;1.77;;
38581;SDS011;24349;53.720;10.014;2023-06-04T14:39:19;5.47;;;2.40;;
38581;SDS011;24349;53.720;10.014;2023-06-04T14:41:45;5.30;;;2.13;;
38581;SDS011;24349;53.720;10.014;2023-06-04T14:44:10;4.28;;;1.80;;